Time;durP1;ratioP1;P1;durP2;ratioP2;P2;SDS_P1;SDS_P2;PMS_P1;PMS_P2;Temp;Humidity;BMP_temperature;BMP_pressure;BME280_temperature;BME280_humidity;BME280_pressure;Samples;Min_cycle;Max_cycle;Signal;HPM_P1;HPM_P2
2022/04/09 00:00:32;;;;;;;1.70;1.00;;;5.50;99.90;;;;;;5093469;28;20203;-69
2022/04/09 00:02:58;;;;;;;3.23;0.93;;;5.60;99.90;;;;;;5093143;28;20211;-70
2022/04/09 00:05:24;;;;;;;1.00;1.00;;;5.70;99.90;;;;;;5058065;28;20221;-69
2022/04/09 00:07:50;;;;;;;3.97;1.63;;;5.80;99.90;;;;;;5091812;28;20185;-70
2022/04/09 00:10:16;;;;;;;3.00;2.77;;;5.80;99.90;;;;;;5093084;28;20246;-71
2022/04/09 00:12:45;;;;;;;2.93;1.50;;;5.90;99.90;;;;;;5058469;28;20185;-69
2022/04/09 00:15:14;;;;;;;2.40;1.93;;;5.80;99.90;;;;;;5074685;28;20630;-69
2022/04/09 00:17:41;;;;;;;6.37;1.90;;;5.80;99.90;;;;;;5093334;28;20185;-69
2022/04/09 00:20:12;;;;;;;0.97;0.97;;;5.70;99.90;;;;;;5093195;28;20184;-69
2022/04/09 00:22:38;;;;;;;3.37;1.30;;;5.70;99.90;;;;;;5058311;28;20421;-69
2022/04/09 00:25:09;;;;;;;2.83;1.60;;;5.80;99.90;;;;;;5058450;28;20617;-69
2022/04/09 00:27:35;;;;;;;2.30;1.77;;;5.80;99.90;;;;;;5073369;28;20185;-69
2022/04/09 00:30:06;;;;;;;2.43;1.67;;;5.80;99.90;;;;;;5074636;28;20329;-69
2022/04/09 00:32:31;;;;;;;4.20;2.50;;;5.90;99.90;;;;;;5092004;28;20263;-69
2022/04/09 00:34:57;;;;;;;3.17;2.90;;;5.70;99.90;;;;;;5074819;28;20434;-69
2022/04/09 00:37:23;;;;;;;1.60;1.50;;;5.60;99.90;;;;;;5074971;28;20185;-69
2022/04/09 00:39:48;;;;;;;1.57;1.47;;;5.60;99.90;;;;;;5073850;28;20188;-69
2022/04/09 00:42:16;;;;;;;3.63;2.10;;;5.60;99.90;;;;;;5057902;28;20526;-69
2022/04/09 00:44:42;;;;;;;4.10;2.20;;;5.50;99.90;;;;;;5074438;28;20223;-69
2022/04/09 00:47:09;;;;;;;7.20;2.30;;;5.40;99.90;;;;;;5091752;28;20184;-69
2022/04/09 00:49:36;;;;;;;4.97;3.17;;;5.40;99.90;;;;;;5074509;28;20188;-69
2022/04/09 00:52:04;;;;;;;4.20;2.50;;;5.40;99.90;;;;;;5074292;28;20184;-69
2022/04/09 00:54:31;;;;;;;4.30;3.60;;;5.40;99.90;;;;;;5091988;28;20188;-69
2022/04/09 00:57:05;;;;;;;3.10;1.67;;;5.50;99.90;;;;;;5092058;28;20192;-73
2022/04/09 00:59:33;;;;;;;3.20;2.73;;;5.50;99.90;;;;;;5082613;28;20246;-69
2022/04/09 01:01:59;;;;;;;3.03;1.63;;;5.60;99.90;;;;;;5091845;28;20195;-72
2022/04/09 01:04:25;;;;;;;9.23;3.17;;;5.60;99.90;;;;;;5092383;28;20213;-69
2022/04/09 01:06:52;;;;;;;3.60;1.63;;;5.50;99.90;;;;;;5074486;28;20281;-69
2022/04/09 01:09:18;;;;;;;1.57;1.47;;;5.60;99.90;;;;;;5092710;28;20185;-69
2022/04/09 01:11:44;;;;;;;3.60;2.20;;;5.60;99.90;;;;;;5092230;28;20184;-69
2022/04/09 01:14:13;;;;;;;2.07;1.93;;;5.60;99.90;;;;;;5057683;28;20203;-69
2022/04/09 01:16:39;;;;;;;6.07;4.80;;;5.50;99.90;;;;;;5054705;28;20188;-69
2022/04/09 01:19:05;;;;;;;6.87;2.13;;;5.40;99.90;;;;;;5061109;28;20189;-69
2022/04/09 01:21:31;;;;;;;2.77;1.60;;;5.50;99.90;;;;;;5092575;28;20180;-69
2022/04/09 01:23:57;;;;;;;9.63;1.83;;;5.60;99.90;;;;;;5092372;28;20237;-69
2022/04/09 01:26:23;;;;;;;2.43;2.33;;;5.50;99.90;;;;;;5091893;28;20199;-69
2022/04/09 01:28:49;;;;;;;6.63;1.77;;;5.30;99.90;;;;;;5095684;28;20650;-69
2022/04/09 01:31:16;;;;;;;6.23;2.00;;;5.30;99.90;;;;;;5062045;28;20187;-69
2022/04/09 01:33:42;;;;;;;8.90;2.77;;;5.30;99.90;;;;;;5078423;28;20199;-69
2022/04/09 01:36:08;;;;;;;2.33;2.13;;;5.20;99.90;;;;;;5078203;28;20283;-69
2022/04/09 01:38:35;;;;;;;2.07;1.67;;;5.20;99.90;;;;;;5095118;28;20189;-71
2022/04/09 01:41:01;;;;;;;3.03;2.73;;;5.40;99.90;;;;;;5095783;28;20818;-69
2022/04/09 01:43:27;;;;;;;1.67;1.67;;;5.30;99.90;;;;;;5044572;28;20185;-71
2022/04/09 01:45:53;;;;;;;2.20;1.23;;;5.20;99.90;;;;;;5061457;28;20181;-69
2022/04/09 01:48:18;;;;;;;6.50;2.10;;;5.20;99.90;;;;;;5061659;28;20216;-69
2022/04/09 01:50:44;;;;;;;1.90;1.80;;;5.30;99.90;;;;;;5061062;28;20566;-69
2022/04/09 01:53:10;;;;;;;1.00;1.00;;;5.30;99.90;;;;;;5087958;28;20192;-69
2022/04/09 01:55:36;;;;;;;1.77;1.67;;;5.40;99.90;;;;;;5074590;28;20199;-69
2022/04/09 01:58:02;;;;;;;7.47;3.83;;;5.40;99.90;;;;;;5077337;28;20192;-69
2022/04/09 02:00:28;;;;;;;3.57;2.27;;;5.30;99.90;;;;;;5095448;28;20193;-69
2022/04/09 02:02:53;;;;;;;2.30;2.20;;;5.30;99.90;;;;;;5077838;28;20233;-69
2022/04/09 02:05:19;;;;;;;1.70;1.63;;;5.50;99.90;;;;;;5096058;28;20216;-69
2022/04/09 02:07:47;;;;;;;4.33;2.67;;;5.50;99.90;;;;;;5095523;28;20271;-69
2022/04/09 02:10:14;;;;;;;13.10;2.30;;;5.30;99.90;;;;;;5094459;28;20567;-69
2022/04/09 02:12:40;;;;;;;1.67;1.57;;;5.20;99.90;;;;;;5095816;28;20189;-69
2022/04/09 02:15:08;;;;;;;10.00;2.27;;;5.10;99.90;;;;;;5076450;28;20180;-69
2022/04/09 02:17:35;;;;;;;1.47;1.37;;;5.00;99.90;;;;;;5077526;28;20200;-69
2022/04/09 02:20:03;;;;;;;1.30;1.30;;;5.10;99.90;;;;;;5095049;28;20180;-69
2022/04/09 02:22:39;;;;;;;1.70;1.60;;;5.10;99.90;;;;;;5094889;28;20245;-69
2022/04/09 02:25:07;;;;;;;12.07;2.43;;;5.20;99.90;;;;;;5068563;28;20618;-69
2022/04/09 02:27:37;;;;;;;1.73;1.63;;;5.20;99.90;;;;;;5077250;28;20196;-69
2022/04/09 02:30:05;;;;;;;2.40;1.60;;;5.20;99.90;;;;;;5095492;28;20279;-69
2022/04/09 02:32:30;;;;;;;2.63;2.23;;;5.00;99.90;;;;;;5093998;28;20211;-69
2022/04/09 02:34:56;;;;;;;7.80;2.13;;;4.90;99.90;;;;;;5059868;28;20649;-72
2022/04/09 02:37:22;;;;;;;3.10;1.47;;;4.80;99.90;;;;;;5076445;28;20526;-69
2022/04/09 02:39:48;;;;;;;5.67;2.40;;;4.80;99.90;;;;;;5094379;28;20216;-69
2022/04/09 02:42:14;;;;;;;2.10;1.23;;;4.80;99.90;;;;;;5076944;28;20693;-69
2022/04/09 02:44:41;;;;;;;3.70;1.80;;;4.90;99.90;;;;;;5094913;28;20217;-69
2022/04/09 02:47:07;;;;;;;1.83;1.33;;;4.90;99.90;;;;;;5077438;28;20249;-69
2022/04/09 02:49:32;;;;;;;1.60;1.50;;;4.80;99.90;;;;;;5090897;28;20602;-69
2022/04/09 02:51:58;;;;;;;2.33;2.03;;;4.80;99.90;;;;;;5067758;28;20193;-69
2022/04/09 02:54:24;;;;;;;9.70;2.07;;;4.90;99.90;;;;;;5059307;28;20201;-69
2022/04/09 02:56:50;;;;;;;8.33;1.70;;;4.90;99.90;;;;;;5076705;28;20188;-69
2022/04/09 02:59:16;;;;;;;2.87;1.93;;;4.90;99.90;;;;;;5053567;28;20196;-69
2022/04/09 03:01:45;;;;;;;3.67;2.33;;;5.00;99.90;;;;;;5040641;28;20268;-69
2022/04/09 03:04:12;;;;;;;7.73;1.70;;;5.00;99.90;;;;;;5067766;28;20215;-69
2022/04/09 03:06:37;;;;;;;1.93;1.53;;;4.90;99.90;;;;;;5077519;28;20181;-69
2022/04/09 03:09:03;;;;;;;2.10;1.40;;;4.90;99.90;;;;;;5058742;28;20290;-70
2022/04/09 03:11:29;;;;;;;2.10;1.27;;;4.90;99.90;;;;;;5067493;28;20536;-69
2022/04/09 03:13:54;;;;;;;2.43;2.10;;;4.90;99.90;;;;;;5059759;28;20207;-69
2022/04/09 03:16:20;;;;;;;1.63;1.53;;;5.00;99.90;;;;;;5093460;28;20191;-69
2022/04/09 03:18:46;;;;;;;2.93;1.57;;;5.10;99.90;;;;;;5059974;28;20337;-69
2022/04/09 03:21:11;;;;;;;4.30;1.90;;;4.80;99.90;;;;;;5094061;28;20184;-69
2022/04/09 03:23:37;;;;;;;2.43;2.07;;;4.80;99.90;;;;;;5041749;28;20310;-69
2022/04/09 03:26:05;;;;;;;2.33;1.30;;;4.70;99.90;;;;;;5058948;28;20181;-69
2022/04/09 03:28:30;;;;;;;2.03;1.83;;;4.80;99.90;;;;;;5075896;28;20188;-69
2022/04/09 03:30:56;;;;;;;3.40;3.07;;;4.90;99.90;;;;;;5094259;28;20192;-69
2022/04/09 03:33:22;;;;;;;1.87;1.40;;;4.70;99.90;;;;;;5070136;28;20189;-69
2022/04/09 03:35:48;;;;;;;1.40;1.30;;;4.70;99.90;;;;;;5087159;28;20241;-69
2022/04/09 03:38:14;;;;;;;1.67;1.57;;;4.70;99.90;;;;;;5093582;28;20185;-69
2022/04/09 03:40:40;;;;;;;1.43;1.33;;;4.90;99.90;;;;;;5094047;28;20199;-70
2022/04/09 03:43:06;;;;;;;1.10;1.10;;;4.90;99.90;;;;;;5093404;28;20193;-70
2022/04/09 03:45:31;;;;;;;3.40;1.87;;;4.80;99.90;;;;;;5094313;28;20287;-69
2022/04/09 03:47:57;;;;;;;3.80;2.33;;;4.70;99.90;;;;;;5075611;28;20188;-69
2022/04/09 03:50:23;;;;;;;6.03;1.83;;;4.80;99.90;;;;;;5091918;28;20246;-73
2022/04/09 03:52:49;;;;;;;2.13;1.63;;;4.70;99.90;;;;;;5093268;28;20185;-70
2022/04/09 03:55:15;;;;;;;3.23;1.60;;;4.70;99.90;;;;;;5074706;28;20224;-71
2022/04/09 03:57:41;;;;;;;1.17;1.17;;;4.70;99.90;;;;;;5075052;28;20219;-70
2022/04/09 04:00:09;;;;;;;3.37;2.37;;;4.60;99.90;;;;;;5064807;28;20564;-69
2022/04/09 04:02:35;;;;;;;5.07;4.57;;;4.60;99.90;;;;;;5093579;28;20196;-69
2022/04/09 04:05:03;;;;;;;4.60;1.83;;;4.70;99.90;;;;;;5074997;28;20217;-69
2022/04/09 04:07:30;;;;;;;9.97;1.70;;;4.70;99.90;;;;;;5075707;28;20204;-69
2022/04/09 04:09:55;;;;;;;4.53;1.10;;;4.70;99.90;;;;;;5058401;28;20195;-67
2022/04/09 04:12:21;;;;;;;3.60;2.23;;;4.80;99.90;;;;;;5075776;28;20177;-69
2022/04/09 04:14:47;;;;;;;3.67;2.27;;;4.80;99.90;;;;;;5057875;28;20197;-69
2022/04/09 04:17:12;;;;;;;3.43;3.13;;;4.80;99.90;;;;;;5074801;28;20283;-69
2022/04/09 04:19:39;;;;;;;1.00;1.00;;;4.70;99.90;;;;;;5065668;28;20195;-69
2022/04/09 04:22:05;;;;;;;2.10;1.90;;;4.70;99.90;;;;;;5052005;28;20653;-69
2022/04/09 04:24:31;;;;;;;2.03;1.87;;;4.50;99.90;;;;;;5073836;28;20213;-69
2022/04/09 04:26:56;;;;;;;3.13;2.53;;;4.60;99.90;;;;;;5061169;28;20257;-68
2022/04/09 04:29:22;;;;;;;2.47;2.27;;;4.70;99.90;;;;;;5058343;28;20189;-69
2022/04/09 04:31:48;;;;;;;4.63;3.57;;;4.70;99.90;;;;;;5074733;28;20199;-69
2022/04/09 04:34:13;;;;;;;13.17;2.50;;;4.60;99.90;;;;;;5091475;28;20220;-69
2022/04/09 04:36:39;;;;;;;2.60;2.40;;;4.60;99.90;;;;;;5074197;28;20202;-69
2022/04/09 04:39:05;;;;;;;1.20;1.20;;;4.90;99.90;;;;;;5089609;28;20246;-69
2022/04/09 04:41:30;;;;;;;3.00;2.20;;;5.00;99.90;;;;;;5063191;28;20192;-69
2022/04/09 04:43:56;;;;;;;2.27;2.10;;;5.00;99.90;;;;;;5074142;28;20228;-69
2022/04/09 04:46:22;;;;;;;6.17;2.87;;;5.10;99.90;;;;;;5092263;28;20177;-69
2022/04/09 04:48:48;;;;;;;4.47;1.63;;;5.00;99.90;;;;;;5075174;28;20215;-69
2022/04/09 04:51:13;;;;;;;1.50;1.40;;;5.10;99.90;;;;;;5073708;28;20267;-69
2022/04/09 04:53:39;;;;;;;1.83;1.73;;;5.00;99.90;;;;;;5075039;28;20743;-69
2022/04/09 04:56:04;;;;;;;2.07;1.93;;;5.00;99.90;;;;;;5075030;28;20547;-69
2022/04/09 04:58:30;;;;;;;4.97;1.87;;;5.10;99.90;;;;;;5074414;28;20205;-69
2022/04/09 05:00:56;;;;;;;1.87;1.77;;;5.10;99.90;;;;;;5088982;28;20196;-69
2022/04/09 05:03:22;;;;;;;1.30;1.20;;;5.20;99.90;;;;;;5061025;28;20538;-69
2022/04/09 05:05:48;;;;;;;1.63;1.53;;;5.10;99.90;;;;;;5074662;28;20315;-69
2022/04/09 05:08:14;;;;;;;8.03;2.23;;;4.90;99.90;;;;;;5069135;28;20668;-69
2022/04/09 05:10:39;;;;;;;2.53;1.90;;;4.70;99.90;;;;;;5072863;28;20181;-69
2022/04/09 05:13:05;;;;;;;4.63;2.00;;;4.70;99.90;;;;;;5069960;28;20199;-69
2022/04/09 05:15:31;;;;;;;1.80;1.70;;;4.80;99.90;;;;;;5091235;28;20219;-68
2022/04/09 05:17:57;;;;;;;6.77;4.90;;;4.60;99.90;;;;;;5092587;28;21107;-69
2022/04/09 05:20:23;;;;;;;1.73;1.63;;;4.70;99.90;;;;;;5074529;28;20181;-69
2022/04/09 05:22:49;;;;;;;1.97;1.77;;;4.70;99.90;;;;;;5091453;28;20189;-69
2022/04/09 05:25:19;;;;;;;6.37;1.67;;;4.70;99.90;;;;;;5074142;28;20216;-69
2022/04/09 05:27:45;;;;;;;2.63;2.43;;;4.70;99.90;;;;;;5092335;28;20751;-69
2022/04/09 05:30:11;;;;;;;1.70;1.60;;;4.70;99.90;;;;;;5074416;28;20189;-68
2022/04/09 05:32:39;;;;;;;5.30;2.50;;;4.70;99.90;;;;;;5056490;28;20665;-71
2022/04/09 05:35:09;;;;;;;2.07;1.93;;;4.90;99.90;;;;;;5073628;28;20284;-69
2022/04/09 05:37:34;;;;;;;1.70;1.10;;;4.90;99.90;;;;;;5091315;28;20184;-70
2022/04/09 05:40:00;;;;;;;12.27;2.00;;;4.90;99.90;;;;;;5091960;28;20653;-68
2022/04/09 05:42:26;;;;;;;3.93;2.47;;;5.00;99.90;;;;;;5092177;28;20204;-69
2022/04/09 05:45:02;;;;;;;1.60;1.60;;;5.10;99.90;;;;;;5091873;28;20306;-69
2022/04/09 05:47:30;;;;;;;2.30;1.93;;;5.10;99.90;;;;;;5091859;28;20188;-68
2022/04/09 05:49:58;;;;;;;5.67;4.47;;;5.10;99.90;;;;;;5073594;28;20533;-69
2022/04/09 05:52:24;;;;;;;6.97;2.57;;;5.20;99.90;;;;;;5072877;28;20283;-69
2022/04/09 05:54:50;;;;;;;8.03;2.30;;;5.10;99.90;;;;;;5069862;28;20688;-69
2022/04/09 05:57:16;;;;;;;2.63;1.70;;;5.20;99.90;;;;;;5084108;28;20259;-69
2022/04/09 05:59:42;;;;;;;8.10;2.43;;;5.20;99.90;;;;;;5072760;28;20197;-69
2022/04/09 06:02:08;;;;;;;1.00;1.00;;;5.50;99.90;;;;;;5065259;28;20235;-69
2022/04/09 06:04:33;;;;;;;2.67;2.47;;;5.70;99.90;;;;;;5078597;28;20220;-69
2022/04/09 06:07:00;;;;;;;1.87;1.53;;;5.80;99.90;;;;;;5057549;28;20630;-70
2022/04/09 06:09:26;;;;;;;2.60;1.87;;;5.80;99.90;;;;;;5073638;28;20615;-69
2022/04/09 06:11:52;;;;;;;1.17;1.17;;;5.70;99.90;;;;;;5056280;28;20268;-69
2022/04/09 06:14:18;;;;;;;15.63;3.63;;;5.60;99.90;;;;;;5093577;28;20684;-69
2022/04/09 06:16:44;;;;;;;3.50;2.13;;;5.60;99.90;;;;;;5094223;28;20195;-70
2022/04/09 06:19:10;;;;;;;2.83;2.63;;;5.80;99.90;;;;;;5077818;28;20230;-69
2022/04/09 06:21:36;;;;;;;4.07;2.63;;;5.90;99.90;;;;;;5077526;28;20188;-68
2022/04/09 06:24:02;;;;;;;13.10;2.90;;;6.10;99.90;;;;;;5077691;28;20216;-69
2022/04/09 06:26:28;;;;;;;6.37;2.00;;;6.10;99.90;;;;;;5076611;28;20284;-69
2022/04/09 06:28:55;;;;;;;8.73;2.77;;;6.20;99.90;;;;;;5077095;28;20714;-69
2022/04/09 06:31:21;;;;;;;5.17;2.40;;;6.20;99.90;;;;;;5095062;28;20177;-69
2022/04/09 06:33:47;;;;;;;4.87;2.17;;;6.20;99.90;;;;;;5076858;28;20181;-69
2022/04/09 06:36:12;;;;;;;1.27;1.23;;;6.10;99.90;;;;;;5060553;28;20191;-68
2022/04/09 06:38:38;;;;;;;7.73;2.43;;;6.10;99.90;;;;;;5095148;28;20524;-69
2022/04/09 06:41:04;;;;;;;4.00;3.67;;;6.30;99.90;;;;;;5095320;28;20610;-69
2022/04/09 06:43:30;;;;;;;4.93;2.33;;;6.40;99.90;;;;;;5095250;28;20188;-69
2022/04/09 06:45:56;;;;;;;7.03;2.00;;;6.50;99.90;;;;;;5060572;28;20238;-69
2022/04/09 06:48:22;;;;;;;4.00;2.67;;;6.40;99.90;;;;;;5076496;28;20185;-69
2022/04/09 06:50:48;;;;;;;4.53;2.27;;;6.40;99.90;;;;;;5083083;28;20200;-69
2022/04/09 06:53:14;;;;;;;6.10;2.53;;;6.40;99.90;;;;;;5034145;28;20181;-70
2022/04/09 06:55:41;;;;;;;4.67;3.03;;;6.50;99.90;;;;;;5077916;28;20184;-69
2022/04/09 06:58:06;;;;;;;4.53;2.37;;;6.70;99.90;;;;;;5076242;28;20208;-69
2022/04/09 07:00:33;;;;;;;4.93;1.70;;;6.80;99.90;;;;;;5094796;28;20598;-69
2022/04/09 07:03:00;;;;;;;3.23;2.07;;;6.90;99.90;;;;;;5094883;28;20185;-68
2022/04/09 07:05:26;;;;;;;3.67;2.13;;;7.10;99.90;;;;;;5094404;28;20217;-68
2022/04/09 07:07:52;;;;;;;2.93;2.17;;;7.30;99.90;;;;;;5076090;28;20196;-69
2022/04/09 07:10:17;;;;;;;3.87;1.57;;;7.40;99.90;;;;;;5093572;28;20559;-69
2022/04/09 07:12:43;;;;;;;3.10;1.53;;;7.50;99.90;;;;;;5076453;28;20185;-69
2022/04/09 07:15:10;;;;;;;8.87;1.90;;;7.50;99.90;;;;;;5062722;28;20189;-69
2022/04/09 07:17:37;;;;;;;9.77;3.13;;;7.60;99.90;;;;;;5084567;28;20603;-68
2022/04/09 07:20:06;;;;;;;8.70;1.50;;;7.60;99.90;;;;;;5075898;28;20199;-69
2022/04/09 07:22:33;;;;;;;3.60;2.00;;;7.70;99.90;;;;;;5059332;28;20187;-68
2022/04/09 07:24:58;;;;;;;0.83;0.83;;;7.70;99.90;;;;;;5058960;28;20220;-68
2022/04/09 07:27:47;;;;;;;3.33;1.93;;;7.70;99.90;;;;;;5074584;28;20188;-68
2022/04/09 07:30:18;;;;;;;2.90;1.20;;;7.90;99.90;;;;;;5075040;28;20211;-69
2022/04/09 07:32:45;;;;;;;2.93;1.90;;;8.90;99.90;;;;;;5075027;28;20180;-69
2022/04/09 07:35:12;;;;;;;5.03;1.67;;;10.70;99.90;;;;;;5076261;28;20220;-67
2022/04/09 07:37:46;;;;;;;4.57;2.03;;;12.20;99.90;;;;;;5094223;28;20324;-67
2022/04/09 07:40:14;;;;;;;3.10;2.35;;;13.20;99.90;;;;;;5093054;28;20187;-67
2022/04/09 07:42:41;;;;;;;8.20;2.10;;;14.10;99.90;;;;;;5093738;28;20641;-71
2022/04/09 07:45:07;;;;;;;3.88;3.58;;;14.60;99.90;;;;;;5064228;28;20215;-69
2022/04/09 07:47:33;;;;;;;3.10;1.63;;;16.30;99.90;;;;;;5093710;28;20645;-69
2022/04/09 07:50:00;;;;;;;5.97;2.80;;;16.80;99.90;;;;;;5042481;28;20199;-69
2022/04/09 07:52:27;;;;;;;8.75;2.13;;;16.60;99.90;;;;;;5074925;28;20184;-70
2022/04/09 07:54:52;;;;;;;4.80;2.30;;;16.60;99.90;;;;;;5093739;28;20196;-70
2022/04/09 07:57:21;;;;;;;3.50;1.73;;;16.90;99.90;;;;;;5075019;28;20544;-69
2022/04/09 07:59:49;;;;;;;5.20;2.22;;;17.40;99.90;;;;;;5075359;28;20201;-69
2022/04/09 08:02:14;;;;;;;3.78;1.65;;;16.80;99.90;;;;;;5093090;28;20215;-72
2022/04/09 08:04:40;;;;;;;4.10;1.83;;;15.90;99.90;;;;;;5075956;28;20216;-69
2022/04/09 08:07:06;;;;;;;3.78;2.17;;;15.10;99.90;;;;;;5075039;28;20287;-69
2022/04/09 08:09:31;;;;;;;7.22;2.50;;;14.90;99.90;;;;;;5075588;28;20202;-69
2022/04/09 08:11:57;;;;;;;7.78;1.42;;;15.10;99.90;;;;;;5058818;28;20204;-69
2022/04/09 08:14:22;;;;;;;1.25;1.17;;;14.50;99.90;;;;;;5074923;28;20550;-69
2022/04/09 08:16:48;;;;;;;1.85;1.50;;;14.60;99.90;;;;;;5058096;28;20279;-69
2022/04/09 08:19:14;;;;;;;1.95;1.50;;;15.20;99.90;;;;;;5075197;28;20184;-68
2022/04/09 08:21:39;;;;;;;9.02;1.88;;;15.40;99.90;;;;;;5092106;28;20181;-72
2022/04/09 08:24:05;;;;;;;1.40;1.30;;;16.00;99.90;;;;;;5093458;28;20606;-70
2022/04/09 08:26:31;;;;;;;7.68;2.58;;;16.90;99.90;;;;;;5074062;28;20185;-69
2022/04/09 08:28:56;;;;;;;2.13;2.03;;;16.90;99.90;;;;;;5075865;28;20173;-68
2022/04/09 08:31:22;;;;;;;2.38;1.63;;;16.50;99.90;;;;;;5092143;28;20562;-68
2022/04/09 08:33:49;;;;;;;3.08;1.48;;;15.80;99.90;;;;;;5075540;28;20199;-68
2022/04/09 08:36:14;;;;;;;6.05;2.00;;;15.70;99.90;;;;;;5092056;28;20184;-68
2022/04/09 08:38:40;;;;;;;3.47;1.38;;;14.70;99.90;;;;;;5092667;28;20189;-69
2022/04/09 08:41:06;;;;;;;4.38;2.10;;;15.00;99.90;;;;;;5074888;28;20188;-68
2022/04/09 08:43:32;;;;;;;1.95;1.35;;;15.80;99.90;;;;;;5092559;28;20189;-69
2022/04/09 08:46:02;;;;;;;5.47;1.42;;;16.50;99.90;;;;;;5092735;28;20262;-69
2022/04/09 08:48:28;;;;;;;2.88;1.23;;;16.10;99.90;;;;;;5092578;28;20222;-69
2022/04/09 08:50:54;;;;;;;4.45;1.30;;;15.30;99.90;;;;;;5073812;28;20645;-69
2022/04/09 08:53:21;;;;;;;3.00;2.03;;;14.90;99.90;;;;;;5041552;28;20180;-70
2022/04/09 08:55:48;;;;;;;2.63;2.45;;;15.40;99.90;;;;;;5069862;28;20234;-69
2022/04/09 08:58:14;;;;;;;1.38;1.27;;;14.60;99.90;;;;;;5074102;28;20642;-68
2022/04/09 09:00:40;;;;;;;3.83;1.50;;;13.30;99.90;;;;;;5058633;28;20539;-68
2022/04/09 09:03:10;;;;;;;2.70;0.95;;;12.60;99.90;;;;;;5074007;28;20192;-68
2022/04/09 09:05:39;;;;;;;7.53;2.20;;;12.40;99.90;;;;;;5074108;28;20695;-68
2022/04/09 09:08:06;;;;;;;2.00;1.55;;;12.10;99.90;;;;;;5063939;28;20173;-68
2022/04/09 09:10:34;;;;;;;2.60;2.15;;;12.30;99.90;;;;;;5090211;28;20188;-68
2022/04/09 09:13:11;;;;;;;2.05;1.95;;;12.20;99.90;;;;;;5091468;28;20181;-68
2022/04/09 09:15:55;;;;;;;2.60;1.42;;;12.20;99.90;;;;;;5057885;28;20253;-68
2022/04/09 09:18:28;;;;;;;1.95;1.83;;;12.10;99.90;;;;;;5079198;28;20192;-68
2022/04/09 09:20:55;;;;;;;1.63;1.40;;;12.20;99.90;;;;;;5092375;28;20180;-68
2022/04/09 09:23:30;;;;;;;4.70;1.65;;;11.80;99.90;;;;;;5073859;28;20188;-68
2022/04/09 09:25:57;;;;;;;2.13;1.50;;;11.60;99.90;;;;;;5074383;28;20208;-70
2022/04/09 09:28:28;;;;;;;1.70;1.58;;;12.00;99.90;;;;;;5091672;28;20193;-68
2022/04/09 09:30:55;;;;;;;3.08;1.50;;;12.00;99.90;;;;;;5091499;28;20297;-69
2022/04/09 09:33:25;;;;;;;0.88;0.88;;;11.70;99.90;;;;;;5072898;28;20180;-71
2022/04/09 09:35:51;;;;;;;1.77;1.58;;;11.60;99.90;;;;;;5074886;28;20613;-68
2022/04/09 09:38:24;;;;;;;3.22;1.58;;;11.60;99.90;;;;;;5091532;28;20211;-68
2022/04/09 09:40:50;;;;;;;4.28;1.42;;;12.00;99.90;;;;;;5092481;28;20180;-69
2022/04/09 09:43:17;;;;;;;3.85;1.67;;;12.00;99.90;;;;;;5074072;28;20193;-69
2022/04/09 09:45:43;;;;;;;4.05;1.95;;;12.20;99.90;;;;;;5091935;28;20307;-69
2022/04/09 09:48:24;;;;;;;7.57;2.58;;;12.50;99.90;;;;;;5084267;28;20268;-68
2022/04/09 09:50:57;;;;;;;4.38;2.10;;;12.10;99.90;;;;;;5094407;28;20196;-68
2022/04/09 09:53:34;;;;;;;4.90;3.67;;;12.00;99.90;;;;;;5077707;28;20235;-68
2022/04/09 09:56:02;;;;;;;4.95;1.88;;;11.90;99.90;;;;;;5077363;28;20229;-68
2022/04/09 09:58:29;;;;;;;1.80;1.70;;;11.80;99.90;;;;;;5096166;28;20543;-69
2022/04/09 10:00:56;;;;;;;10.93;3.73;;;11.70;99.90;;;;;;5078016;28;20271;-68
2022/04/09 10:03:23;;;;;;;1.75;1.65;;;11.40;99.90;;;;;;5077359;28;20264;-68
2022/04/09 10:05:50;;;;;;;2.08;1.88;;;11.50;99.90;;;;;;5077926;28;20231;-68
2022/04/09 10:08:17;;;;;;;9.73;2.63;;;11.80;99.90;;;;;;5095335;28;20702;-70
2022/04/09 10:10:48;;;;;;;3.22;2.45;;;12.10;99.90;;;;;;5078490;28;20540;-69
2022/04/09 10:13:21;;;;;;;4.53;2.97;;;12.20;99.90;;;;;;5077295;28;20654;-68
2022/04/09 10:15:50;;;;;;;4.80;2.63;;;12.40;99.90;;;;;;5077437;28;20612;-68
2022/04/09 10:18:23;;;;;;;5.10;2.40;;;12.40;99.90;;;;;;5076613;28;20226;-68
2022/04/09 10:20:57;;;;;;;5.57;2.15;;;12.40;99.90;;;;;;5095644;28;20548;-69
2022/04/09 10:23:24;;;;;;;3.28;2.03;;;12.20;99.90;;;;;;5094383;28;20179;-68
2022/04/09 10:25:52;;;;;;;7.25;2.35;;;12.40;99.90;;;;;;5071489;28;20647;-68
2022/04/09 10:28:30;;;;;;;4.78;2.42;;;12.50;99.90;;;;;;5075971;28;20185;-68
2022/04/09 10:30:56;;;;;;;6.72;2.50;;;12.80;99.90;;;;;;5066325;28;20184;-68
2022/04/09 10:33:23;;;;;;;2.75;2.20;;;12.90;99.90;;;;;;5076976;28;20615;-68
2022/04/09 10:35:49;;;;;;;1.70;1.60;;;13.00;99.90;;;;;;5065115;28;20192;-69
2022/04/09 10:38:22;;;;;;;2.33;1.98;;;12.90;99.90;;;;;;5095329;28;20191;-73
2022/04/09 10:40:55;;;;;;;3.95;3.65;;;12.80;99.90;;;;;;5093937;28;20181;-70
2022/04/09 10:43:24;;;;;;;2.22;1.45;;;13.10;99.90;;;;;;5066926;28;20330;-70
2022/04/09 10:46:02;;;;;;;1.95;1.85;;;13.30;99.90;;;;;;5090467;28;20204;-69
2022/04/09 10:48:39;;;;;;;9.93;2.10;;;13.20;99.90;;;;;;5076452;28;20660;-69
2022/04/09 10:51:08;;;;;;;3.22;1.88;;;13.20;99.90;;;;;;5067923;28;20193;-68
2022/04/09 10:53:39;;;;;;;4.13;1.80;;;13.30;99.90;;;;;;5076992;28;20667;-68
2022/04/09 10:56:28;;;;;;;4.32;1.23;;;13.20;99.90;;;;;;5076202;28;20200;-71
2022/04/09 10:59:13;;;;;;;1.90;1.70;;;13.00;99.90;;;;;;5082538;28;20208;-68
2022/04/09 11:01:48;;;;;;;2.70;2.50;;;12.70;99.90;;;;;;5079771;28;20655;-69
2022/04/09 11:04:34;;;;;;;2.78;1.83;;;12.90;99.90;;;;;;5094862;28;20637;-68
2022/04/09 11:07:06;;;;;;;4.13;2.17;;;13.10;99.90;;;;;;5080699;28;20169;-69
2022/04/09 11:09:44;;;;;;;2.90;2.55;;;13.20;99.90;;;;;;5094479;28;20172;-69
2022/04/09 11:12:10;;;;;;;7.25;2.85;;;13.60;99.90;;;;;;5084627;28;20180;-69
2022/04/09 11:14:50;;;;;;;1.73;1.63;;;13.70;99.90;;;;;;5076811;28;20199;-69
2022/04/09 11:17:17;;;;;;;1.65;1.55;;;13.90;99.90;;;;;;5057660;28;20172;-69
2022/04/09 11:19:43;;;;;;;4.05;1.85;;;13.40;99.90;;;;;;5054761;28;20191;-73
2022/04/09 11:22:09;;;;;;;1.67;1.58;;;12.90;99.90;;;;;;5076680;28;20193;-69
2022/04/09 11:24:38;;;;;;;1.50;1.23;;;12.50;99.90;;;;;;5094192;28;20216;-69
2022/04/09 11:27:05;;;;;;;2.50;1.02;;;12.20;99.90;;;;;;5076360;28;20183;-69
2022/04/09 11:29:38;;;;;;;1.30;1.20;;;11.90;99.90;;;;;;5094155;28;20184;-69
2022/04/09 11:32:04;;;;;;;3.00;1.85;;;11.70;99.90;;;;;;5061526;28;20188;-69
2022/04/09 11:35:11;;;;;;;4.88;1.77;;;11.40;99.90;;;;;;5094022;28;20189;-69
2022/04/09 11:37:45;;;;;;;0.88;0.88;;;11.60;99.90;;;;;;5012131;28;20187;-69
2022/04/09 11:40:13;;;;;;;0.73;0.73;;;11.40;99.90;;;;;;5012165;28;20191;-69
2022/04/09 11:42:53;;;;;;;2.23;0.40;;;11.40;99.90;;;;;;5056627;28;20208;-67
2022/04/09 11:45:21;;;;;;;3.10;1.13;;;11.40;99.90;;;;;;5093725;28;20212;-68
2022/04/09 11:47:47;;;;;;;0.77;0.77;;;11.30;99.90;;;;;;5085882;28;20268;-67
2022/04/09 11:50:14;;;;;;;0.67;0.60;;;11.20;99.90;;;;;;5061021;28;20272;-68
2022/04/09 11:52:41;;;;;;;2.57;1.00;;;11.20;99.90;;;;;;5075891;28;20176;-68
2022/04/09 11:55:10;;;;;;;2.47;1.17;;;11.20;99.90;;;;;;5075327;28;20185;-69
2022/04/09 11:57:37;;;;;;;3.57;1.27;;;11.40;99.90;;;;;;5094133;28;20196;-69
2022/04/09 12:00:04;;;;;;;1.65;1.20;;;11.80;99.90;;;;;;5093044;28;20649;-69
2022/04/09 12:02:30;;;;;;;0.73;0.70;;;12.20;99.90;;;;;;5075835;28;20284;-69
2022/04/09 12:05:01;;;;;;;3.03;0.95;;;12.00;99.90;;;;;;5075296;28;20227;-69
2022/04/09 12:07:28;;;;;;;1.20;1.08;;;12.30;99.90;;;;;;5092975;28;20582;-69
2022/04/09 12:09:54;;;;;;;0.95;0.95;;;12.30;99.90;;;;;;5075384;28;20192;-69
2022/04/09 12:12:24;;;;;;;5.25;1.77;;;12.50;99.90;;;;;;5092417;28;20180;-69
2022/04/09 12:15:00;;;;;;;0.68;0.68;;;12.70;99.90;;;;;;5093079;28;20220;-69
2022/04/09 12:17:34;;;;;;;1.17;1.17;;;12.70;99.90;;;;;;5058500;28;20185;-69
2022/04/09 12:20:20;;;;;;;3.65;1.77;;;12.80;99.90;;;;;;5093197;28;20701;-69
2022/04/09 12:22:56;;;;;;;0.80;0.80;;;12.90;99.90;;;;;;5055515;28;20181;-69
2022/04/09 12:25:42;;;;;;;2.72;0.80;;;13.00;99.90;;;;;;5040451;28;20239;-69
2022/04/09 12:28:22;;;;;;;1.02;0.93;;;13.00;99.90;;;;;;5093255;28;20329;-68
2022/04/09 12:30:49;;;;;;;1.60;0.63;;;13.20;99.90;;;;;;5092745;28;20195;-69
2022/04/09 12:33:15;;;;;;;0.70;0.70;;;13.30;99.90;;;;;;5075224;28;20260;-69
2022/04/09 12:35:42;;;;;;;0.50;0.50;;;13.20;99.90;;;;;;5058175;28;20200;-67
2022/04/09 12:38:08;;;;;;;0.40;0.40;;;13.00;99.90;;;;;;5092901;28;20185;-68
2022/04/09 12:40:34;;;;;;;0.98;0.98;;;12.90;99.90;;;;;;5074444;28;20517;-67
2022/04/09 12:43:01;;;;;;;0.80;0.80;;;13.10;99.90;;;;;;5092869;28;20181;-68
2022/04/09 12:45:28;;;;;;;0.65;0.65;;;13.10;99.90;;;;;;5064979;28;20217;-67
2022/04/09 12:48:05;;;;;;;0.95;0.95;;;12.80;99.90;;;;;;5075165;28;20180;-67
2022/04/09 12:50:35;;;;;;;1.08;0.50;;;12.80;99.90;;;;;;5057968;28;20188;-68
2022/04/09 12:53:05;;;;;;;0.63;0.63;;;12.80;99.90;;;;;;5073768;28;20671;-68
2022/04/09 12:55:33;;;;;;;1.50;0.88;;;12.80;99.90;;;;;;5074479;28;20192;-68